sensor_id;sensor_type;location;lat;lon;timestamp;P1;durP1;ratioP1;P2;durP2;ratioP2
17345;SDS011;8790;53.590;10.002;2022-07-11T00:02:20;3.33;;;1.30;;
17345;SDS011;8790;53.590;10.002;2022-07-11T00:04:54;4.70;;;1.50;;
17345;SDS011;8790;53.590;10.002;2022-07-11T00:07:25;3.93;;;1.60;;
17345;SDS011;8790;53.590;10.002;2022-07-11T00:09:57;4.23;;;1.33;;
17345;SDS011;8790;53.590;10.002;2022-07-11T00:12:29;4.53;;;1.40;;
17345;SDS011;8790;53.590;10.002;2022-07-11T00:15:01;4.03;;;1.30;;
17345;SDS011;8790;53.590;10.002;2022-07-11T00:17:33;6.00;;;1.50;;
17345;SDS011;8790;53.590;10.002;2022-07-11T00:20:06;3.23;;;1.20;;
17345;SDS011;8790;53.590;10.002;2022-07-11T00:22:38;4.23;;;1.60;;
17345;SDS011;8790;53.590;10.002;2022-07-11T00:25:10;5.00;;;1.50;;
17345;SDS011;8790;53.590;10.002;2022-07-11T00:27:42;2.33;;;1.10;;
17345;SDS011;8790;53.590;10.002;2022-07-11T00:30:14;4.00;;;1.40;;
17345;SDS011;8790;53.590;10.002;2022-07-11T00:32:47;2.93;;;1.10;;
17345;SDS011;8790;53.590;10.002;2022-07-11T00:35:20;5.67;;;1.33;;
17345;SDS011;8790;53.590;10.002;2022-07-11T00:37:51;5.57;;;1.40;;
17345;SDS011;8790;53.590;10.002;2022-07-11T00:40:23;3.00;;;1.10;;
17345;SDS011;8790;53.590;10.002;2022-07-11T00:42:55;5.00;;;1.30;;
17345;SDS011;8790;53.590;10.002;2022-07-11T00:45:27;3.13;;;1.20;;
17345;SDS011;8790;53.590;10.002;2022-07-11T00:47:59;2.83;;;1.40;;
17345;SDS011;8790;53.590;10.002;2022-07-11T00:50:32;2.67;;;1.03;;
17345;SDS011;8790;53.590;10.002;2022-07-11T00:53:04;2.40;;;1.10;;
17345;SDS011;8790;53.590;10.002;2022-07-11T00:55:36;3.00;;;1.10;;
17345;SDS011;8790;53.590;10.002;2022-07-11T00:58:07;3.47;;;1.40;;
17345;SDS011;8790;53.590;10.002;2022-07-11T01:00:39;4.20;;;1.30;;
17345;SDS011;8790;53.590;10.002;2022-07-11T01:03:12;2.27;;;1.03;;
17345;SDS011;8790;53.590;10.002;2022-07-11T01:05:46;4.90;;;1.40;;
17345;SDS011;8790;53.590;10.002;2022-07-11T01:08:17;4.10;;;1.20;;
17345;SDS011;8790;53.590;10.002;2022-07-11T01:10:49;3.83;;;1.20;;
17345;SDS011;8790;53.590;10.002;2022-07-11T01:13:21;2.50;;;1.10;;
17345;SDS011;8790;53.590;10.002;2022-07-11T01:16:05;2.90;;;1.20;;
17345;SDS011;8790;53.590;10.002;2022-07-11T01:18:38;3.37;;;1.30;;
17345;SDS011;8790;53.590;10.002;2022-07-11T01:21:17;3.67;;;1.73;;
17345;SDS011;8790;53.590;10.002;2022-07-11T01:23:53;3.23;;;1.27;;
17345;SDS011;8790;53.590;10.002;2022-07-11T01:26:26;3.57;;;1.10;;
17345;SDS011;8790;53.590;10.002;2022-07-11T01:29:04;3.43;;;1.10;;
17345;SDS011;8790;53.590;10.002;2022-07-11T01:31:37;3.77;;;1.10;;
17345;SDS011;8790;53.590;10.002;2022-07-11T01:34:09;2.60;;;1.13;;
17345;SDS011;8790;53.590;10.002;2022-07-11T01:36:42;3.03;;;1.30;;
17345;SDS011;8790;53.590;10.002;2022-07-11T01:39:15;2.33;;;1.20;;
17345;SDS011;8790;53.590;10.002;2022-07-11T01:41:46;1.40;;;1.10;;
17345;SDS011;8790;53.590;10.002;2022-07-11T01:44:18;2.73;;;1.30;;
17345;SDS011;8790;53.590;10.002;2022-07-11T01:46:50;2.73;;;1.10;;
17345;SDS011;8790;53.590;10.002;2022-07-11T01:49:22;3.53;;;1.17;;
17345;SDS011;8790;53.590;10.002;2022-07-11T01:51:53;5.17;;;1.33;;
17345;SDS011;8790;53.590;10.002;2022-07-11T01:54:26;4.63;;;1.17;;
17345;SDS011;8790;53.590;10.002;2022-07-11T01:56:58;4.83;;;1.10;;
17345;SDS011;8790;53.590;10.002;2022-07-11T01:59:30;4.13;;;1.17;;
17345;SDS011;8790;53.590;10.002;2022-07-11T02:02:02;1.70;;;1.00;;
17345;SDS011;8790;53.590;10.002;2022-07-11T02:04:34;2.73;;;1.00;;
17345;SDS011;8790;53.590;10.002;2022-07-11T02:07:05;6.00;;;1.27;;
17345;SDS011;8790;53.590;10.002;2022-07-11T02:09:39;3.03;;;1.40;;
17345;SDS011;8790;53.590;10.002;2022-07-11T02:12:11;1.97;;;1.10;;
17345;SDS011;8790;53.590;10.002;2022-07-11T02:14:42;3.63;;;1.20;;
17345;SDS011;8790;53.590;10.002;2022-07-11T02:17:14;4.70;;;1.20;;
17345;SDS011;8790;53.590;10.002;2022-07-11T02:19:46;3.47;;;1.20;;
17345;SDS011;8790;53.590;10.002;2022-07-11T02:22:17;3.57;;;1.10;;
17345;SDS011;8790;53.590;10.002;2022-07-11T02:24:50;3.00;;;0.90;;
17345;SDS011;8790;53.590;10.002;2022-07-11T02:27:22;4.10;;;1.40;;
17345;SDS011;8790;53.590;10.002;2022-07-11T02:29:54;5.67;;;1.47;;
17345;SDS011;8790;53.590;10.002;2022-07-11T02:32:25;2.70;;;1.20;;
17345;SDS011;8790;53.590;10.002;2022-07-11T02:34:57;4.30;;;1.27;;
17345;SDS011;8790;53.590;10.002;2022-07-11T02:37:29;4.13;;;1.40;;
17345;SDS011;8790;53.590;10.002;2022-07-11T02:40:03;2.67;;;1.13;;
17345;SDS011;8790;53.590;10.002;2022-07-11T02:42:36;2.03;;;1.13;;
17345;SDS011;8790;53.590;10.002;2022-07-11T02:45:08;2.23;;;1.27;;
17345;SDS011;8790;53.590;10.002;2022-07-11T02:47:40;3.53;;;1.40;;
17345;SDS011;8790;53.590;10.002;2022-07-11T02:50:13;2.30;;;1.13;;
17345;SDS011;8790;53.590;10.002;2022-07-11T02:52:45;1.90;;;1.50;;
17345;SDS011;8790;53.590;10.002;2022-07-11T02:55:19;5.10;;;1.60;;
17345;SDS011;8790;53.590;10.002;2022-07-11T02:57:50;3.13;;;1.33;;
17345;SDS011;8790;53.590;10.002;2022-07-11T03:00:22;2.97;;;1.10;;
17345;SDS011;8790;53.590;10.002;2022-07-11T03:02:54;5.27;;;1.60;;
17345;SDS011;8790;53.590;10.002;2022-07-11T03:05:26;3.30;;;1.40;;
17345;SDS011;8790;53.590;10.002;2022-07-11T03:07:58;3.10;;;1.40;;
17345;SDS011;8790;53.590;10.002;2022-07-11T03:10:31;4.77;;;1.40;;
17345;SDS011;8790;53.590;10.002;2022-07-11T03:13:03;2.60;;;1.30;;
17345;SDS011;8790;53.590;10.002;2022-07-11T03:15:34;3.90;;;1.50;;
17345;SDS011;8790;53.590;10.002;2022-07-11T03:18:06;4.17;;;1.73;;
17345;SDS011;8790;53.590;10.002;2022-07-11T03:20:38;4.03;;;1.47;;
17345;SDS011;8790;53.590;10.002;2022-07-11T03:23:10;3.17;;;1.17;;
17345;SDS011;8790;53.590;10.002;2022-07-11T03:25:43;2.40;;;1.10;;
17345;SDS011;8790;53.590;10.002;2022-07-11T03:28:15;3.67;;;1.40;;
17345;SDS011;8790;53.590;10.002;2022-07-11T03:30:46;5.37;;;1.33;;
17345;SDS011;8790;53.590;10.002;2022-07-11T03:33:18;2.70;;;1.27;;
17345;SDS011;8790;53.590;10.002;2022-07-11T03:35:50;3.00;;;1.30;;
17345;SDS011;8790;53.590;10.002;2022-07-11T03:38:22;4.13;;;1.47;;
17345;SDS011;8790;53.590;10.002;2022-07-11T03:40:55;4.03;;;1.37;;
17345;SDS011;8790;53.590;10.002;2022-07-11T03:43:27;3.43;;;1.37;;
17345;SDS011;8790;53.590;10.002;2022-07-11T03:45:58;3.77;;;1.50;;
17345;SDS011;8790;53.590;10.002;2022-07-11T03:48:30;3.70;;;1.33;;
17345;SDS011;8790;53.590;10.002;2022-07-11T03:51:02;2.53;;;1.50;;
17345;SDS011;8790;53.590;10.002;2022-07-11T03:53:34;3.57;;;1.37;;
17345;SDS011;8790;53.590;10.002;2022-07-11T03:56:07;3.77;;;1.40;;
17345;SDS011;8790;53.590;10.002;2022-07-11T03:58:39;4.10;;;1.43;;
17345;SDS011;8790;53.590;10.002;2022-07-11T04:01:10;1.53;;;1.30;;
17345;SDS011;8790;53.590;10.002;2022-07-11T04:03:42;3.67;;;1.73;;
17345;SDS011;8790;53.590;10.002;2022-07-11T04:06:14;3.50;;;1.40;;
17345;SDS011;8790;53.590;10.002;2022-07-11T04:08:46;3.27;;;1.70;;
17345;SDS011;8790;53.590;10.002;2022-07-11T04:11:19;3.10;;;1.70;;
17345;SDS011;8790;53.590;10.002;2022-07-11T04:13:51;5.20;;;1.77;;
17345;SDS011;8790;53.590;10.002;2022-07-11T04:16:23;4.07;;;1.57;;
17345;SDS011;8790;53.590;10.002;2022-07-11T04:18:55;6.17;;;1.60;;
17345;SDS011;8790;53.590;10.002;2022-07-11T04:21:26;3.47;;;1.60;;
17345;SDS011;8790;53.590;10.002;2022-07-11T04:23:58;3.37;;;1.50;;
17345;SDS011;8790;53.590;10.002;2022-07-11T04:26:32;5.20;;;1.57;;
17345;SDS011;8790;53.590;10.002;2022-07-11T04:29:04;3.53;;;1.50;;
17345;SDS011;8790;53.590;10.002;2022-07-11T04:31:35;3.77;;;1.60;;
17345;SDS011;8790;53.590;10.002;2022-07-11T04:34:07;6.93;;;1.77;;
17345;SDS011;8790;53.590;10.002;2022-07-11T04:36:39;3.97;;;1.87;;
17345;SDS011;8790;53.590;10.002;2022-07-11T04:39:11;6.27;;;1.60;;
17345;SDS011;8790;53.590;10.002;2022-07-11T04:41:44;5.90;;;2.20;;
17345;SDS011;8790;53.590;10.002;2022-07-11T04:44:16;8.37;;;2.10;;
17345;SDS011;8790;53.590;10.002;2022-07-11T04:46:47;5.33;;;1.77;;
17345;SDS011;8790;53.590;10.002;2022-07-11T04:49:19;5.17;;;1.80;;
17345;SDS011;8790;53.590;10.002;2022-07-11T04:51:51;7.33;;;1.90;;
17345;SDS011;8790;53.590;10.002;2022-07-11T04:54:23;4.70;;;1.73;;
17345;SDS011;8790;53.590;10.002;2022-07-11T04:56:56;4.63;;;1.47;;
17345;SDS011;8790;53.590;10.002;2022-07-11T04:59:27;3.87;;;1.73;;
17345;SDS011;8790;53.590;10.002;2022-07-11T05:01:59;4.87;;;1.73;;
17345;SDS011;8790;53.590;10.002;2022-07-11T05:04:31;5.57;;;1.77;;
17345;SDS011;8790;53.590;10.002;2022-07-11T05:07:03;5.60;;;1.80;;
17345;SDS011;8790;53.590;10.002;2022-07-11T05:09:35;5.17;;;1.90;;
17345;SDS011;8790;53.590;10.002;2022-07-11T05:12:09;5.90;;;1.67;;
17345;SDS011;8790;53.590;10.002;2022-07-11T05:14:40;5.10;;;1.63;;
17345;SDS011;8790;53.590;10.002;2022-07-11T05:17:13;6.53;;;1.67;;
17345;SDS011;8790;53.590;10.002;2022-07-11T05:19:45;7.53;;;2.33;;
17345;SDS011;8790;53.590;10.002;2022-07-11T05:22:16;4.17;;;1.70;;
17345;SDS011;8790;53.590;10.002;2022-07-11T05:24:48;5.23;;;1.80;;
17345;SDS011;8790;53.590;10.002;2022-07-11T05:27:21;5.33;;;1.90;;
17345;SDS011;8790;53.590;10.002;2022-07-11T05:29:53;4.20;;;1.83;;
17345;SDS011;8790;53.590;10.002;2022-07-11T05:32:25;7.50;;;2.27;;
17345;SDS011;8790;53.590;10.002;2022-07-11T05:34:56;6.73;;;1.60;;
17345;SDS011;8790;53.590;10.002;2022-07-11T05:37:28;6.23;;;1.80;;
17345;SDS011;8790;53.590;10.002;2022-07-11T05:40:00;6.13;;;2.00;;
17345;SDS011;8790;53.590;10.002;2022-07-11T05:42:34;9.53;;;1.87;;
17345;SDS011;8790;53.590;10.002;2022-07-11T05:45:06;5.17;;;1.67;;
17345;SDS011;8790;53.590;10.002;2022-07-11T05:47:38;4.57;;;1.60;;
17345;SDS011;8790;53.590;10.002;2022-07-11T05:50:10;7.30;;;2.10;;
17345;SDS011;8790;53.590;10.002;2022-07-11T05:52:42;6.03;;;1.90;;
17345;SDS011;8790;53.590;10.002;2022-07-11T05:55:13;3.90;;;1.80;;
17345;SDS011;8790;53.590;10.002;2022-07-11T05:57:47;6.57;;;1.93;;
17345;SDS011;8790;53.590;10.002;2022-07-11T06:00:19;7.70;;;2.17;;
17345;SDS011;8790;53.590;10.002;2022-07-11T06:02:51;3.70;;;1.70;;
17345;SDS011;8790;53.590;10.002;2022-07-11T06:05:23;5.57;;;1.80;;
17345;SDS011;8790;53.590;10.002;2022-07-11T06:07:55;5.07;;;1.67;;
17345;SDS011;8790;53.590;10.002;2022-07-11T06:10:44;5.00;;;1.70;;
17345;SDS011;8790;53.590;10.002;2022-07-11T06:13:17;3.00;;;1.70;;
17345;SDS011;8790;53.590;10.002;2022-07-11T06:15:49;4.87;;;1.40;;
17345;SDS011;8790;53.590;10.002;2022-07-11T06:18:20;3.93;;;1.50;;
17345;SDS011;8790;53.590;10.002;2022-07-11T06:20:53;5.90;;;1.40;;
17345;SDS011;8790;53.590;10.002;2022-07-11T06:23:25;4.00;;;2.00;;
17345;SDS011;8790;53.590;10.002;2022-07-11T06:25:57;4.03;;;1.53;;
17345;SDS011;8790;53.590;10.002;2022-07-11T06:28:30;4.23;;;1.80;;
17345;SDS011;8790;53.590;10.002;2022-07-11T06:31:02;3.27;;;1.30;;
17345;SDS011;8790;53.590;10.002;2022-07-11T06:33:34;2.57;;;1.40;;
17345;SDS011;8790;53.590;10.002;2022-07-11T06:36:06;4.07;;;1.40;;
17345;SDS011;8790;53.590;10.002;2022-07-11T06:38:38;5.17;;;1.60;;
17345;SDS011;8790;53.590;10.002;2022-07-11T06:41:11;3.90;;;1.93;;
17345;SDS011;8790;53.590;10.002;2022-07-11T06:43:44;3.43;;;1.20;;
17345;SDS011;8790;53.590;10.002;2022-07-11T06:46:17;2.63;;;1.20;;
17345;SDS011;8790;53.590;10.002;2022-07-11T06:48:49;3.20;;;1.40;;
17345;SDS011;8790;53.590;10.002;2022-07-11T06:51:21;4.97;;;1.27;;
17345;SDS011;8790;53.590;10.002;2022-07-11T06:53:53;6.40;;;1.60;;
17345;SDS011;8790;53.590;10.002;2022-07-11T06:56:24;3.50;;;1.27;;
17345;SDS011;8790;53.590;10.002;2022-07-11T06:58:57;4.10;;;1.90;;
17345;SDS011;8790;53.590;10.002;2022-07-11T07:01:29;4.00;;;1.70;;
17345;SDS011;8790;53.590;10.002;2022-07-11T07:04:01;5.17;;;1.50;;
17345;SDS011;8790;53.590;10.002;2022-07-11T07:06:33;3.37;;;1.57;;
17345;SDS011;8790;53.590;10.002;2022-07-11T07:09:04;4.47;;;1.30;;
17345;SDS011;8790;53.590;10.002;2022-07-11T07:11:36;4.30;;;1.40;;
17345;SDS011;8790;53.590;10.002;2022-07-11T07:14:09;2.67;;;1.23;;
17345;SDS011;8790;53.590;10.002;2022-07-11T07:16:41;4.33;;;1.20;;
17345;SDS011;8790;53.590;10.002;2022-07-11T07:19:13;2.57;;;1.23;;
17345;SDS011;8790;53.590;10.002;2022-07-11T07:21:45;3.70;;;1.10;;
17345;SDS011;8790;53.590;10.002;2022-07-11T07:24:17;3.50;;;1.17;;
17345;SDS011;8790;53.590;10.002;2022-07-11T07:26:49;3.43;;;1.27;;
17345;SDS011;8790;53.590;10.002;2022-07-11T07:29:22;5.83;;;1.20;;
17345;SDS011;8790;53.590;10.002;2022-07-11T07:31:55;4.13;;;1.10;;
17345;SDS011;8790;53.590;10.002;2022-07-11T07:34:27;3.93;;;1.03;;
17345;SDS011;8790;53.590;10.002;2022-07-11T07:36:59;2.97;;;1.10;;
17345;SDS011;8790;53.590;10.002;2022-07-11T07:39:31;3.60;;;1.20;;
17345;SDS011;8790;53.590;10.002;2022-07-11T07:42:03;4.07;;;1.40;;
17345;SDS011;8790;53.590;10.002;2022-07-11T07:44:38;3.30;;;0.97;;
17345;SDS011;8790;53.590;10.002;2022-07-11T07:47:10;2.37;;;1.20;;
17345;SDS011;8790;53.590;10.002;2022-07-11T07:49:41;2.80;;;1.20;;
17345;SDS011;8790;53.590;10.002;2022-07-11T07:52:13;2.03;;;1.00;;
17345;SDS011;8790;53.590;10.002;2022-07-11T07:54:45;3.90;;;1.10;;
17345;SDS011;8790;53.590;10.002;2022-07-11T07:57:17;1.80;;;0.97;;
17345;SDS011;8790;53.590;10.002;2022-07-11T07:59:50;2.47;;;1.17;;
17345;SDS011;8790;53.590;10.002;2022-07-11T08:02:42;2.27;;;1.10;;
17345;SDS011;8790;53.590;10.002;2022-07-11T08:05:12;1.43;;;0.97;;
17345;SDS011;8790;53.590;10.002;2022-07-11T08:07:44;3.43;;;1.00;;
17345;SDS011;8790;53.590;10.002;2022-07-11T08:10:17;2.67;;;1.17;;
17345;SDS011;8790;53.590;10.002;2022-07-11T08:12:49;3.90;;;1.30;;
17345;SDS011;8790;53.590;10.002;2022-07-11T08:15:22;2.30;;;1.20;;
17345;SDS011;8790;53.590;10.002;2022-07-11T08:17:54;3.47;;;1.07;;
17345;SDS011;8790;53.590;10.002;2022-07-11T08:20:25;5.10;;;1.40;;
17345;SDS011;8790;53.590;10.002;2022-07-11T08:22:58;2.77;;;1.30;;
17345;SDS011;8790;53.590;10.002;2022-07-11T08:25:30;1.70;;;1.20;;
17345;SDS011;8790;53.590;10.002;2022-07-11T08:28:02;2.30;;;1.00;;
17345;SDS011;8790;53.590;10.002;2022-07-11T08:30:35;2.07;;;1.17;;
17345;SDS011;8790;53.590;10.002;2022-07-11T08:33:07;2.33;;;1.10;;
17345;SDS011;8790;53.590;10.002;2022-07-11T08:35:39;4.73;;;1.20;;
17345;SDS011;8790;53.590;10.002;2022-07-11T08:38:11;3.97;;;2.30;;
17345;SDS011;8790;53.590;10.002;2022-07-11T08:40:43;4.80;;;1.63;;
17345;SDS011;8790;53.590;10.002;2022-07-11T08:43:15;2.37;;;1.47;;
17345;SDS011;8790;53.590;10.002;2022-07-11T08:45:49;2.42;;;1.30;;
17345;SDS011;8790;53.590;10.002;2022-07-11T08:48:23;2.72;;;0.98;;
17345;SDS011;8790;53.590;10.002;2022-07-11T08:50:55;1.60;;;0.90;;
17345;SDS011;8790;53.590;10.002;2022-07-11T08:53:27;3.72;;;1.00;;
17345;SDS011;8790;53.590;10.002;2022-07-11T08:55:58;1.27;;;0.88;;
17345;SDS011;8790;53.590;10.002;2022-07-11T08:58:31;1.77;;;1.00;;
17345;SDS011;8790;53.590;10.002;2022-07-11T09:01:04;2.17;;;1.10;;
17345;SDS011;8790;53.590;10.002;2022-07-11T09:03:37;2.35;;;1.10;;
17345;SDS011;8790;53.590;10.002;2022-07-11T09:06:09;1.52;;;0.98;;
17345;SDS011;8790;53.590;10.002;2022-07-11T09:08:42;1.93;;;1.20;;
17345;SDS011;8790;53.590;10.002;2022-07-11T09:11:13;3.55;;;1.10;;
17345;SDS011;8790;53.590;10.002;2022-07-11T09:13:45;2.35;;;0.90;;
17345;SDS011;8790;53.590;10.002;2022-07-11T09:16:19;2.80;;;1.10;;
17345;SDS011;8790;53.590;10.002;2022-07-11T09:18:51;2.72;;;1.17;;
17345;SDS011;8790;53.590;10.002;2022-07-11T09:21:22;2.45;;;1.70;;
17345;SDS011;8790;53.590;10.002;2022-07-11T09:24:08;2.90;;;1.20;;
17345;SDS011;8790;53.590;10.002;2022-07-11T09:26:57;2.67;;;1.50;;
17345;SDS011;8790;53.590;10.002;2022-07-11T09:29:29;2.45;;;1.10;;
17345;SDS011;8790;53.590;10.002;2022-07-11T09:32:02;2.70;;;1.08;;
17345;SDS011;8790;53.590;10.002;2022-07-11T09:34:34;1.17;;;0.88;;
17345;SDS011;8790;53.590;10.002;2022-07-11T09:37:06;1.45;;;0.98;;
17345;SDS011;8790;53.590;10.002;2022-07-11T09:39:37;1.77;;;0.80;;
17345;SDS011;8790;53.590;10.002;2022-07-11T09:42:09;1.85;;;0.80;;
17345;SDS011;8790;53.590;10.002;2022-07-11T09:44:41;3.25;;;1.00;;
17345;SDS011;8790;53.590;10.002;2022-07-11T09:47:15;2.03;;;0.90;;
17345;SDS011;8790;53.590;10.002;2022-07-11T09:49:46;1.65;;;0.80;;
17345;SDS011;8790;53.590;10.002;2022-07-11T09:52:18;0.75;;;0.63;;
17345;SDS011;8790;53.590;10.002;2022-07-11T09:54:54;2.05;;;1.02;;
17345;SDS011;8790;53.590;10.002;2022-07-11T09:57:30;1.63;;;1.10;;
17345;SDS011;8790;53.590;10.002;2022-07-11T10:00:04;3.78;;;0.93;;
17345;SDS011;8790;53.590;10.002;2022-07-11T10:02:39;2.13;;;0.90;;
17345;SDS011;8790;53.590;10.002;2022-07-11T10:05:11;1.00;;;0.68;;
17345;SDS011;8790;53.590;10.002;2022-07-11T10:07:42;2.63;;;1.50;;
17345;SDS011;8790;53.590;10.002;2022-07-11T10:10:14;2.85;;;1.10;;
17345;SDS011;8790;53.590;10.002;2022-07-11T10:12:46;3.65;;;1.30;;
17345;SDS011;8790;53.590;10.002;2022-07-11T10:15:19;3.05;;;0.90;;
17345;SDS011;8790;53.590;10.002;2022-07-11T10:17:58;1.77;;;0.65;;
17345;SDS011;8790;53.590;10.002;2022-07-11T10:20:39;1.30;;;0.70;;
17345;SDS011;8790;53.590;10.002;2022-07-11T10:23:14;1.35;;;0.80;;
17345;SDS011;8790;53.590;10.002;2022-07-11T10:25:55;3.70;;;1.40;;
17345;SDS011;8790;53.590;10.002;2022-07-11T10:28:32;2.15;;;0.93;;
17345;SDS011;8790;53.590;10.002;2022-07-11T10:31:17;2.80;;;1.33;;
17345;SDS011;8790;53.590;10.002;2022-07-11T10:36:39;1.00;;;0.90;;
17345;SDS011;8790;53.590;10.002;2022-07-11T10:39:13;1.42;;;1.10;;
17345;SDS011;8790;53.590;10.002;2022-07-11T10:41:48;2.60;;;1.17;;
17345;SDS011;8790;53.590;10.002;2022-07-11T10:44:20;1.10;;;1.00;;
17345;SDS011;8790;53.590;10.002;2022-07-11T10:46:52;2.38;;;1.10;;
17345;SDS011;8790;53.590;10.002;2022-07-11T10:49:31;1.73;;;1.23;;
17345;SDS011;8790;53.590;10.002;2022-07-11T10:52:08;1.88;;;1.40;;
17345;SDS011;8790;53.590;10.002;2022-07-11T10:54:49;2.85;;;1.45;;
17345;SDS011;8790;53.590;10.002;2022-07-11T10:57:33;1.23;;;1.13;;
17345;SDS011;8790;53.590;10.002;2022-07-11T11:00:12;1.40;;;1.30;;
17345;SDS011;8790;53.590;10.002;2022-07-11T11:03:00;1.35;;;1.00;;
17345;SDS011;8790;53.590;10.002;2022-07-11T11:05:48;1.00;;;0.90;;
17345;SDS011;8790;53.590;10.002;2022-07-11T11:08:41;1.80;;;0.90;;
17345;SDS011;8790;53.590;10.002;2022-07-11T11:14:20;5.15;;;1.30;;
17345;SDS011;8790;53.590;10.002;2022-07-11T11:20:03;2.47;;;1.05;;
17345;SDS011;8790;53.590;10.002;2022-07-11T11:22:36;1.70;;;0.98;;
17345;SDS011;8790;53.590;10.002;2022-07-11T11:25:09;1.30;;;0.93;;
17345;SDS011;8790;53.590;10.002;2022-07-11T11:30:33;1.30;;;1.20;;
17345;SDS011;8790;53.590;10.002;2022-07-11T11:33:13;3.22;;;1.50;;
17345;SDS011;8790;53.590;10.002;2022-07-11T11:35:45;2.30;;;2.10;;
17345;SDS011;8790;53.590;10.002;2022-07-11T11:38:32;1.98;;;1.77;;
17345;SDS011;8790;53.590;10.002;2022-07-11T11:41:05;2.95;;;1.83;;
17345;SDS011;8790;53.590;10.002;2022-07-11T11:43:37;2.13;;;1.55;;
17345;SDS011;8790;53.590;10.002;2022-07-11T11:46:14;1.80;;;1.70;;
17345;SDS011;8790;53.590;10.002;2022-07-11T11:48:46;2.13;;;1.90;;
17345;SDS011;8790;53.590;10.002;2022-07-11T11:51:18;2.30;;;1.98;;
17345;SDS011;8790;53.590;10.002;2022-07-11T11:53:52;2.13;;;1.70;;
17345;SDS011;8790;53.590;10.002;2022-07-11T11:56:26;1.85;;;1.75;;
17345;SDS011;8790;53.590;10.002;2022-07-11T11:58:59;2.00;;;1.38;;
17345;SDS011;8790;53.590;10.002;2022-07-11T12:01:33;1.38;;;1.27;;
17345;SDS011;8790;53.590;10.002;2022-07-11T12:04:06;3.28;;;1.85;;
17345;SDS011;8790;53.590;10.002;2022-07-11T12:06:39;1.88;;;1.75;;
17345;SDS011;8790;53.590;10.002;2022-07-11T12:09:14;2.10;;;1.90;;
17345;SDS011;8790;53.590;10.002;2022-07-11T12:11:47;2.90;;;1.70;;
17345;SDS011;8790;53.590;10.002;2022-07-11T12:14:41;2.45;;;1.80;;
17345;SDS011;8790;53.590;10.002;2022-07-11T12:17:13;1.90;;;1.80;;
17345;SDS011;8790;53.590;10.002;2022-07-11T12:19:46;1.50;;;1.40;;
17345;SDS011;8790;53.590;10.002;2022-07-11T12:22:17;2.45;;;1.88;;
17345;SDS011;8790;53.590;10.002;2022-07-11T12:24:52;2.78;;;2.30;;
17345;SDS011;8790;53.590;10.002;2022-07-11T12:27:24;2.50;;;2.30;;
17345;SDS011;8790;53.590;10.002;2022-07-11T12:29:56;2.38;;;2.17;;
17345;SDS011;8790;53.590;10.002;2022-07-11T12:32:28;2.80;;;2.45;;
17345;SDS011;8790;53.590;10.002;2022-07-11T12:35:00;2.60;;;2.40;;
17345;SDS011;8790;53.590;10.002;2022-07-11T12:37:43;2.65;;;2.10;;
17345;SDS011;8790;53.590;10.002;2022-07-11T12:40:16;2.45;;;2.20;;
17345;SDS011;8790;53.590;10.002;2022-07-11T12:42:47;3.97;;;2.33;;
17345;SDS011;8790;53.590;10.002;2022-07-11T12:45:19;2.65;;;2.15;;
17345;SDS011;8790;53.590;10.002;2022-07-11T12:47:50;2.20;;;2.10;;
17345;SDS011;8790;53.590;10.002;2022-07-11T12:50:26;2.25;;;2.05;;
17345;SDS011;8790;53.590;10.002;2022-07-11T12:52:59;2.33;;;2.13;;
17345;SDS011;8790;53.590;10.002;2022-07-11T12:55:33;2.10;;;2.00;;
17345;SDS011;8790;53.590;10.002;2022-07-11T12:58:06;2.58;;;1.90;;
17345;SDS011;8790;53.590;10.002;2022-07-11T13:00:42;2.63;;;1.88;;
17345;SDS011;8790;53.590;10.002;2022-07-11T13:03:29;1.95;;;1.83;;
17345;SDS011;8790;53.590;10.002;2022-07-11T13:06:01;1.50;;;1.40;;
17345;SDS011;8790;53.590;10.002;2022-07-11T13:08:34;1.33;;;1.23;;
17345;SDS011;8790;53.590;10.002;2022-07-11T13:11:22;1.45;;;1.35;;
17345;SDS011;8790;53.590;10.002;2022-07-11T13:13:54;2.25;;;1.60;;
17345;SDS011;8790;53.590;10.002;2022-07-11T13:16:26;1.48;;;1.38;;
17345;SDS011;8790;53.590;10.002;2022-07-11T13:18:58;3.35;;;1.50;;
17345;SDS011;8790;53.590;10.002;2022-07-11T13:21:30;1.50;;;1.40;;
17345;SDS011;8790;53.590;10.002;2022-07-11T13:24:01;1.50;;;1.40;;
17345;SDS011;8790;53.590;10.002;2022-07-11T13:26:34;1.60;;;1.30;;
17345;SDS011;8790;53.590;10.002;2022-07-11T13:29:06;1.85;;;1.40;;
17345;SDS011;8790;53.590;10.002;2022-07-11T13:31:38;2.10;;;1.40;;
17345;SDS011;8790;53.590;10.002;2022-07-11T13:34:09;1.38;;;1.27;;
17345;SDS011;8790;53.590;10.002;2022-07-11T13:36:41;1.92;;;1.33;;
17345;SDS011;8790;53.590;10.002;2022-07-11T13:39:13;1.80;;;1.52;;
17345;SDS011;8790;53.590;10.002;2022-07-11T13:41:46;1.90;;;1.40;;
17345;SDS011;8790;53.590;10.002;2022-07-11T13:44:17;2.08;;;1.60;;
17345;SDS011;8790;53.590;10.002;2022-07-11T13:46:49;1.50;;;1.40;;
17345;SDS011;8790;53.590;10.002;2022-07-11T13:49:21;1.50;;;1.40;;
17345;SDS011;8790;53.590;10.002;2022-07-11T13:51:53;1.85;;;1.55;;
17345;SDS011;8790;53.590;10.002;2022-07-11T13:54:24;1.70;;;1.60;;
17345;SDS011;8790;53.590;10.002;2022-07-11T13:56:58;2.13;;;1.60;;
17345;SDS011;8790;53.590;10.002;2022-07-11T13:59:30;2.33;;;1.50;;
17345;SDS011;8790;53.590;10.002;2022-07-11T14:02:02;2.80;;;1.60;;
17345;SDS011;8790;53.590;10.002;2022-07-11T14:04:34;2.38;;;1.30;;
17345;SDS011;8790;53.590;10.002;2022-07-11T14:07:06;1.90;;;1.10;;
17345;SDS011;8790;53.590;10.002;2022-07-11T14:09:38;1.25;;;1.15;;
17345;SDS011;8790;53.590;10.002;2022-07-11T14:12:12;1.15;;;1.10;;
17345;SDS011;8790;53.590;10.002;2022-07-11T14:14:43;1.10;;;0.90;;
17345;SDS011;8790;53.590;10.002;2022-07-11T14:17:15;2.53;;;1.38;;
17345;SDS011;8790;53.590;10.002;2022-07-11T14:19:47;2.78;;;0.90;;
17345;SDS011;8790;53.590;10.002;2022-07-11T14:22:19;1.20;;;0.85;;
17345;SDS011;8790;53.590;10.002;2022-07-11T14:24:50;0.90;;;0.80;;
17345;SDS011;8790;53.590;10.002;2022-07-11T14:27:23;1.20;;;1.10;;
17345;SDS011;8790;53.590;10.002;2022-07-11T14:29:55;3.78;;;1.23;;
17345;SDS011;8790;53.590;10.002;2022-07-11T14:32:27;2.45;;;1.40;;
17345;SDS011;8790;53.590;10.002;2022-07-11T14:34:58;0.80;;;0.75;;
17345;SDS011;8790;53.590;10.002;2022-07-11T14:37:30;1.77;;;0.77;;
17345;SDS011;8790;53.590;10.002;2022-07-11T14:40:02;0.73;;;0.73;;
17345;SDS011;8790;53.590;10.002;2022-07-11T14:42:36;1.88;;;1.10;;
17345;SDS011;8790;53.590;10.002;2022-07-11T14:45:08;0.95;;;0.70;;
17345;SDS011;8790;53.590;10.002;2022-07-11T14:47:41;0.65;;;0.65;;
17345;SDS011;8790;53.590;10.002;2022-07-11T14:50:12;2.50;;;0.80;;
17345;SDS011;8790;53.590;10.002;2022-07-11T14:52:44;1.02;;;0.80;;
17345;SDS011;8790;53.590;10.002;2022-07-11T14:55:17;1.08;;;0.85;;
17345;SDS011;8790;53.590;10.002;2022-07-11T14:57:49;0.75;;;0.70;;
17345;SDS011;8790;53.590;10.002;2022-07-11T15:00:21;0.85;;;0.85;;
17345;SDS011;8790;53.590;10.002;2022-07-11T15:02:53;1.95;;;0.80;;
17345;SDS011;8790;53.590;10.002;2022-07-11T15:05:43;0.73;;;0.70;;
17345;SDS011;8790;53.590;10.002;2022-07-11T15:08:14;0.90;;;0.80;;
17345;SDS011;8790;53.590;10.002;2022-07-11T15:11:15;2.72;;;1.00;;
17345;SDS011;8790;53.590;10.002;2022-07-11T15:14:06;0.77;;;0.70;;
17345;SDS011;8790;53.590;10.002;2022-07-11T15:16:38;1.42;;;0.70;;
17345;SDS011;8790;53.590;10.002;2022-07-11T15:19:10;0.88;;;0.80;;
17345;SDS011;8790;53.590;10.002;2022-07-11T15:21:41;0.70;;;0.70;;
17345;SDS011;8790;53.590;10.002;2022-07-11T15:24:13;0.77;;;0.68;;
17345;SDS011;8790;53.590;10.002;2022-07-11T15:26:45;1.63;;;0.80;;
17345;SDS011;8790;53.590;10.002;2022-07-11T15:29:17;2.22;;;0.90;;
17345;SDS011;8790;53.590;10.002;2022-07-11T15:31:49;1.65;;;0.70;;
17345;SDS011;8790;53.590;10.002;2022-07-11T15:34:21;2.42;;;0.70;;
17345;SDS011;8790;53.590;10.002;2022-07-11T15:36:53;1.55;;;0.77;;